Estevan Point, Canada
Current Conditions -  °F | °C
As of 6:00 PM on Thursday 23 Oct 2014 (Local Time) from CYAZ Reporting Station
Rain Showers Rain Showers  
Wind Chill:   Ceiling: 2000
Heat Index:   Visibility: 10mi
Dew Point:   Wind: 6mph
Humidity: 100%   Direction: 90°E
Pressure: 29.84"   Gusts: NA
Location:  49.38°N, 126.54°W
Report Text: CYAZ 240100Z 09005KT 10SM -SHRA SCT010 BKN020CB 09/09 A2984 RMK CF3CB3 CB ALQDS LAST OBS/NEXT 241300UTC SLP104
Loading
Personal Weather Stations






























Interactive Weather Map
Tropical Storm Tracking
New forecast layout! Learn more

10-Day Weather Forecast

Advertisements
Track Severe Weather on mobile